sensor_id;sensor_type;location;lat;lon;timestamp;P1;durP1;ratioP1;P2;durP2;ratioP2
49340;SDS011;35209;51.050;13.678;2024-03-08T00:02:53;14.98;;;12.63;;
49340;SDS011;35209;51.050;13.678;2024-03-08T00:07:55;14.70;;;13.02;;
49340;SDS011;35209;51.050;13.678;2024-03-08T00:12:57;17.33;;;14.27;;
49340;SDS011;35209;51.050;13.678;2024-03-08T00:17:59;17.30;;;14.32;;
49340;SDS011;35209;51.050;13.678;2024-03-08T00:23:01;22.63;;;14.93;;
49340;SDS011;35209;51.050;13.678;2024-03-08T00:28:02;13.38;;;11.63;;
49340;SDS011;35209;51.050;13.678;2024-03-08T00:33:06;22.38;;;14.30;;
49340;SDS011;35209;51.050;13.678;2024-03-08T00:38:08;24.25;;;16.38;;
49340;SDS011;35209;51.050;13.678;2024-03-08T00:43:09;21.27;;;15.60;;
49340;SDS011;35209;51.050;13.678;2024-03-08T00:48:11;19.23;;;13.07;;
49340;SDS011;35209;51.050;13.678;2024-03-08T00:53:13;20.25;;;14.75;;
49340;SDS011;35209;51.050;13.678;2024-03-08T00:58:15;19.73;;;14.32;;
49340;SDS011;35209;51.050;13.678;2024-03-08T01:03:17;17.10;;;14.25;;
49340;SDS011;35209;51.050;13.678;2024-03-08T01:08:18;18.90;;;15.23;;
49340;SDS011;35209;51.050;13.678;2024-03-08T01:13:20;17.45;;;13.52;;
49340;SDS011;35209;51.050;13.678;2024-03-08T01:18:22;15.55;;;13.05;;
49340;SDS011;35209;51.050;13.678;2024-03-08T01:23:24;19.85;;;15.27;;
49340;SDS011;35209;51.050;13.678;2024-03-08T01:28:26;21.95;;;15.75;;
49340;SDS011;35209;51.050;13.678;2024-03-08T01:33:28;20.73;;;14.10;;
49340;SDS011;35209;51.050;13.678;2024-03-08T01:38:30;22.88;;;15.77;;
49340;SDS011;35209;51.050;13.678;2024-03-08T01:43:31;20.77;;;15.15;;
49340;SDS011;35209;51.050;13.678;2024-03-08T01:48:34;15.43;;;13.82;;
49340;SDS011;35209;51.050;13.678;2024-03-08T01:53:36;20.63;;;14.98;;
49340;SDS011;35209;51.050;13.678;2024-03-08T01:58:38;23.30;;;15.98;;
49340;SDS011;35209;51.050;13.678;2024-03-08T02:03:41;17.73;;;14.80;;
49340;SDS011;35209;51.050;13.678;2024-03-08T02:08:45;19.23;;;15.35;;
49340;SDS011;35209;51.050;13.678;2024-03-08T02:13:48;21.42;;;15.02;;
49340;SDS011;35209;51.050;13.678;2024-03-08T02:18:50;23.45;;;14.55;;
49340;SDS011;35209;51.050;13.678;2024-03-08T02:23:52;18.08;;;15.65;;
49340;SDS011;35209;51.050;13.678;2024-03-08T02:28:54;29.42;;;15.85;;
49340;SDS011;35209;51.050;13.678;2024-03-08T02:33:56;23.52;;;15.85;;
49340;SDS011;35209;51.050;13.678;2024-03-08T02:38:58;19.85;;;15.07;;
49340;SDS011;35209;51.050;13.678;2024-03-08T02:44:00;20.63;;;14.98;;
49340;SDS011;35209;51.050;13.678;2024-03-08T02:49:01;22.23;;;16.13;;
49340;SDS011;35209;51.050;13.678;2024-03-08T02:54:03;19.27;;;13.73;;
49340;SDS011;35209;51.050;13.678;2024-03-08T02:59:05;21.15;;;15.65;;
49340;SDS011;35209;51.050;13.678;2024-03-08T03:04:07;23.05;;;16.25;;
49340;SDS011;35209;51.050;13.678;2024-03-08T03:09:09;19.85;;;14.07;;
49340;SDS011;35209;51.050;13.678;2024-03-08T03:14:12;24.67;;;15.73;;
49340;SDS011;35209;51.050;13.678;2024-03-08T03:19:13;20.33;;;15.00;;
49340;SDS011;35209;51.050;13.678;2024-03-08T03:24:16;23.17;;;15.05;;
49340;SDS011;35209;51.050;13.678;2024-03-08T03:29:19;20.55;;;14.95;;
49340;SDS011;35209;51.050;13.678;2024-03-08T03:34:21;26.48;;;14.02;;
49340;SDS011;35209;51.050;13.678;2024-03-08T03:39:24;17.75;;;14.80;;
49340;SDS011;35209;51.050;13.678;2024-03-08T03:44:26;26.73;;;17.05;;
49340;SDS011;35209;51.050;13.678;2024-03-08T03:49:28;20.77;;;16.10;;
49340;SDS011;35209;51.050;13.678;2024-03-08T03:54:30;29.85;;;16.63;;
49340;SDS011;35209;51.050;13.678;2024-03-08T03:59:32;23.38;;;16.30;;
49340;SDS011;35209;51.050;13.678;2024-03-08T04:04:34;20.75;;;15.38;;
49340;SDS011;35209;51.050;13.678;2024-03-08T04:09:36;23.60;;;16.58;;
49340;SDS011;35209;51.050;13.678;2024-03-08T04:14:41;21.98;;;16.55;;
49340;SDS011;35209;51.050;13.678;2024-03-08T04:19:43;21.92;;;16.65;;
49340;SDS011;35209;51.050;13.678;2024-03-08T04:24:45;20.27;;;15.02;;
49340;SDS011;35209;51.050;13.678;2024-03-08T04:29:47;23.10;;;17.20;;
49340;SDS011;35209;51.050;13.678;2024-03-08T04:34:49;18.13;;;14.07;;
49340;SDS011;35209;51.050;13.678;2024-03-08T04:39:51;24.75;;;16.33;;
49340;SDS011;35209;51.050;13.678;2024-03-08T04:44:52;25.73;;;17.05;;
49340;SDS011;35209;51.050;13.678;2024-03-08T04:49:55;20.27;;;15.55;;
49340;SDS011;35209;51.050;13.678;2024-03-08T04:54:58;23.40;;;15.50;;
49340;SDS011;35209;51.050;13.678;2024-03-08T05:00:00;28.48;;;17.55;;
49340;SDS011;35209;51.050;13.678;2024-03-08T05:05:03;24.77;;;16.05;;
49340;SDS011;35209;51.050;13.678;2024-03-08T05:10:07;22.17;;;16.58;;
49340;SDS011;35209;51.050;13.678;2024-03-08T05:15:10;34.40;;;18.10;;
49340;SDS011;35209;51.050;13.678;2024-03-08T05:20:11;29.98;;;17.77;;
49340;SDS011;35209;51.050;13.678;2024-03-08T05:25:15;21.73;;;16.95;;
49340;SDS011;35209;51.050;13.678;2024-03-08T05:30:16;26.83;;;18.05;;
49340;SDS011;35209;51.050;13.678;2024-03-08T05:35:18;29.73;;;18.35;;
49340;SDS011;35209;51.050;13.678;2024-03-08T05:40:20;35.65;;;18.08;;
49340;SDS011;35209;51.050;13.678;2024-03-08T05:45:23;25.55;;;16.92;;
49340;SDS011;35209;51.050;13.678;2024-03-08T05:50:26;31.10;;;17.27;;
49340;SDS011;35209;51.050;13.678;2024-03-08T05:55:28;21.67;;;16.38;;
49340;SDS011;35209;51.050;13.678;2024-03-08T06:00:31;28.40;;;17.48;;
49340;SDS011;35209;51.050;13.678;2024-03-08T06:05:33;29.00;;;16.48;;
49340;SDS011;35209;51.050;13.678;2024-03-08T06:10:35;28.05;;;18.10;;
49340;SDS011;35209;51.050;13.678;2024-03-08T06:15:37;34.85;;;20.13;;
49340;SDS011;35209;51.050;13.678;2024-03-08T06:20:39;29.45;;;17.80;;
49340;SDS011;35209;51.050;13.678;2024-03-08T06:25:45;28.33;;;17.77;;
49340;SDS011;35209;51.050;13.678;2024-03-08T06:30:47;26.85;;;15.68;;
49340;SDS011;35209;51.050;13.678;2024-03-08T06:35:49;23.13;;;15.95;;
49340;SDS011;35209;51.050;13.678;2024-03-08T06:40:51;21.25;;;15.40;;
49340;SDS011;35209;51.050;13.678;2024-03-08T06:45:53;17.70;;;15.18;;
49340;SDS011;35209;51.050;13.678;2024-03-08T06:50:55;18.95;;;14.57;;
49340;SDS011;35209;51.050;13.678;2024-03-08T06:55:58;16.88;;;14.80;;
49340;SDS011;35209;51.050;13.678;2024-03-08T07:00:59;22.60;;;17.63;;
49340;SDS011;35209;51.050;13.678;2024-03-08T07:06:05;22.92;;;15.75;;
49340;SDS011;35209;51.050;13.678;2024-03-08T07:11:09;23.67;;;16.80;;
49340;SDS011;35209;51.050;13.678;2024-03-08T07:16:11;21.80;;;16.15;;
49340;SDS011;35209;51.050;13.678;2024-03-08T07:21:13;25.13;;;16.35;;
49340;SDS011;35209;51.050;13.678;2024-03-08T07:26:15;28.17;;;17.52;;
49340;SDS011;35209;51.050;13.678;2024-03-08T07:31:18;27.17;;;17.38;;
49340;SDS011;35209;51.050;13.678;2024-03-08T07:36:46;17.40;;;15.48;;
49340;SDS011;35209;51.050;13.678;2024-03-08T07:41:48;23.13;;;17.38;;
49340;SDS011;35209;51.050;13.678;2024-03-08T07:46:49;21.88;;;16.17;;
49340;SDS011;35209;51.050;13.678;2024-03-08T07:51:53;24.20;;;16.02;;
49340;SDS011;35209;51.050;13.678;2024-03-08T07:56:55;27.13;;;17.73;;
49340;SDS011;35209;51.050;13.678;2024-03-08T08:01:57;28.92;;;17.17;;
49340;SDS011;35209;51.050;13.678;2024-03-08T08:06:59;24.42;;;16.10;;
49340;SDS011;35209;51.050;13.678;2024-03-08T08:12:01;23.17;;;15.82;;
49340;SDS011;35209;51.050;13.678;2024-03-08T08:17:05;20.73;;;16.15;;
49340;SDS011;35209;51.050;13.678;2024-03-08T08:22:10;19.90;;;16.27;;
49340;SDS011;35209;51.050;13.678;2024-03-08T08:27:12;22.42;;;15.90;;
49340;SDS011;35209;51.050;13.678;2024-03-08T08:32:17;25.40;;;16.00;;
49340;SDS011;35209;51.050;13.678;2024-03-08T08:37:19;26.42;;;15.95;;
49340;SDS011;35209;51.050;13.678;2024-03-08T08:42:24;20.95;;;14.88;;
49340;SDS011;35209;51.050;13.678;2024-03-08T08:47:26;20.63;;;14.75;;
49340;SDS011;35209;51.050;13.678;2024-03-08T08:52:28;21.38;;;15.43;;
49340;SDS011;35209;51.050;13.678;2024-03-08T08:57:30;16.58;;;14.80;;
49340;SDS011;35209;51.050;13.678;2024-03-08T09:02:34;18.05;;;14.50;;
49340;SDS011;35209;51.050;13.678;2024-03-08T09:07:36;19.42;;;14.50;;
49340;SDS011;35209;51.050;13.678;2024-03-08T09:12:39;17.83;;;14.95;;
49340;SDS011;35209;51.050;13.678;2024-03-08T09:17:41;21.13;;;14.40;;
49340;SDS011;35209;51.050;13.678;2024-03-08T09:22:44;20.83;;;14.38;;
49340;SDS011;35209;51.050;13.678;2024-03-08T09:27:46;18.58;;;14.20;;
49340;SDS011;35209;51.050;13.678;2024-03-08T09:32:48;15.93;;;14.38;;
49340;SDS011;35209;51.050;13.678;2024-03-08T09:37:52;19.30;;;13.75;;
49340;SDS011;35209;51.050;13.678;2024-03-08T09:42:55;13.68;;;12.25;;
49340;SDS011;35209;51.050;13.678;2024-03-08T09:47:57;17.00;;;12.38;;
49340;SDS011;35209;51.050;13.678;2024-03-08T09:52:59;16.38;;;13.55;;
49340;SDS011;35209;51.050;13.678;2024-03-08T09:58:01;14.48;;;12.18;;
49340;SDS011;35209;51.050;13.678;2024-03-08T10:03:34;17.15;;;12.63;;
49340;SDS011;35209;51.050;13.678;2024-03-08T10:08:36;14.75;;;12.75;;
49340;SDS011;35209;51.050;13.678;2024-03-08T10:13:38;12.85;;;11.52;;
49340;SDS011;35209;51.050;13.678;2024-03-08T10:18:41;15.10;;;13.55;;
49340;SDS011;35209;51.050;13.678;2024-03-08T10:23:43;13.65;;;11.82;;
49340;SDS011;35209;51.050;13.678;2024-03-08T10:28:49;14.57;;;11.40;;
49340;SDS011;35209;51.050;13.678;2024-03-08T10:33:52;17.77;;;11.70;;
49340;SDS011;35209;51.050;13.678;2024-03-08T10:38:54;12.95;;;11.65;;
49340;SDS011;35209;51.050;13.678;2024-03-08T10:44:16;13.75;;;11.50;;
49340;SDS011;35209;51.050;13.678;2024-03-08T10:49:36;14.45;;;12.95;;
49340;SDS011;35209;51.050;13.678;2024-03-08T10:54:40;11.80;;;10.52;;
49340;SDS011;35209;51.050;13.678;2024-03-08T10:59:47;14.18;;;12.05;;
49340;SDS011;35209;51.050;13.678;2024-03-08T11:04:51;12.18;;;10.98;;
49340;SDS011;35209;51.050;13.678;2024-03-08T11:09:54;12.88;;;11.20;;
49340;SDS011;35209;51.050;13.678;2024-03-08T11:15:01;13.15;;;11.82;;
49340;SDS011;35209;51.050;13.678;2024-03-08T11:20:11;12.38;;;11.05;;
49340;SDS011;35209;51.050;13.678;2024-03-08T11:30:32;12.60;;;11.30;;
49340;SDS011;35209;51.050;13.678;2024-03-08T11:35:34;14.05;;;11.20;;
49340;SDS011;35209;51.050;13.678;2024-03-08T11:40:36;13.05;;;10.57;;
49340;SDS011;35209;51.050;13.678;2024-03-08T11:45:38;11.07;;;9.93;;
49340;SDS011;35209;51.050;13.678;2024-03-08T11:50:42;12.00;;;10.80;;
49340;SDS011;35209;51.050;13.678;2024-03-08T11:55:44;11.68;;;9.68;;
49340;SDS011;35209;51.050;13.678;2024-03-08T12:00:48;12.20;;;11.00;;
49340;SDS011;35209;51.050;13.678;2024-03-08T12:05:56;11.60;;;10.40;;
49340;SDS011;35209;51.050;13.678;2024-03-08T12:11:01;11.05;;;9.93;;
49340;SDS011;35209;51.050;13.678;2024-03-08T12:16:05;11.20;;;9.07;;
49340;SDS011;35209;51.050;13.678;2024-03-08T12:21:07;11.82;;;9.82;;
49340;SDS011;35209;51.050;13.678;2024-03-08T12:31:15;11.68;;;8.27;;
49340;SDS011;35209;51.050;13.678;2024-03-08T12:36:27;9.15;;;8.25;;
49340;SDS011;35209;51.050;13.678;2024-03-08T12:41:29;9.70;;;7.47;;
49340;SDS011;35209;51.050;13.678;2024-03-08T12:46:31;8.10;;;7.30;;
49340;SDS011;35209;51.050;13.678;2024-03-08T12:51:33;8.40;;;7.13;;
49340;SDS011;35209;51.050;13.678;2024-03-08T12:56:35;8.90;;;8.00;;
49340;SDS011;35209;51.050;13.678;2024-03-08T13:01:38;9.68;;;8.65;;
49340;SDS011;35209;51.050;13.678;2024-03-08T13:06:41;9.38;;;7.85;;
49340;SDS011;35209;51.050;13.678;2024-03-08T13:11:43;8.57;;;7.75;;
49340;SDS011;35209;51.050;13.678;2024-03-08T13:16:44;9.25;;;8.25;;
49340;SDS011;35209;51.050;13.678;2024-03-08T13:21:50;9.07;;;7.63;;
49340;SDS011;35209;51.050;13.678;2024-03-08T13:26:52;7.97;;;7.15;;
49340;SDS011;35209;51.050;13.678;2024-03-08T13:31:54;8.13;;;7.32;;
49340;SDS011;35209;51.050;13.678;2024-03-08T13:36:58;7.93;;;7.05;;
49340;SDS011;35209;51.050;13.678;2024-03-08T13:42:02;8.77;;;7.95;;
49340;SDS011;35209;51.050;13.678;2024-03-08T13:47:06;7.35;;;6.50;;
49340;SDS011;35209;51.050;13.678;2024-03-08T13:52:09;8.55;;;7.65;;
49340;SDS011;35209;51.050;13.678;2024-03-08T13:57:11;7.68;;;6.88;;
49340;SDS011;35209;51.050;13.678;2024-03-08T14:02:13;8.73;;;6.78;;
49340;SDS011;35209;51.050;13.678;2024-03-08T14:07:15;7.45;;;6.07;;
49340;SDS011;35209;51.050;13.678;2024-03-08T14:12:18;5.90;;;5.40;;
49340;SDS011;35209;51.050;13.678;2024-03-08T14:17:22;7.82;;;7.03;;
49340;SDS011;35209;51.050;13.678;2024-03-08T14:22:25;6.72;;;6.13;;
49340;SDS011;35209;51.050;13.678;2024-03-08T14:27:26;8.05;;;6.60;;
49340;SDS011;35209;51.050;13.678;2024-03-08T14:32:30;7.00;;;6.30;;
49340;SDS011;35209;51.050;13.678;2024-03-08T14:37:31;6.53;;;5.63;;
49340;SDS011;35209;51.050;13.678;2024-03-08T14:42:33;5.65;;;5.00;;
49340;SDS011;35209;51.050;13.678;2024-03-08T14:47:35;4.85;;;4.35;;
49340;SDS011;35209;51.050;13.678;2024-03-08T14:52:37;5.68;;;4.40;;
49340;SDS011;35209;51.050;13.678;2024-03-08T14:57:41;5.45;;;4.03;;
49340;SDS011;35209;51.050;13.678;2024-03-08T15:02:46;4.97;;;4.03;;
49340;SDS011;35209;51.050;13.678;2024-03-08T15:07:49;5.03;;;4.38;;
49340;SDS011;35209;51.050;13.678;2024-03-08T15:12:51;4.68;;;4.22;;
49340;SDS011;35209;51.050;13.678;2024-03-08T15:17:57;4.72;;;3.95;;
49340;SDS011;35209;51.050;13.678;2024-03-08T15:22:59;4.47;;;3.95;;
49340;SDS011;35209;51.050;13.678;2024-03-08T15:28:01;4.20;;;3.45;;
49340;SDS011;35209;51.050;13.678;2024-03-08T15:33:06;4.35;;;3.72;;
49340;SDS011;35209;51.050;13.678;2024-03-08T15:38:12;4.77;;;4.07;;
49340;SDS011;35209;51.050;13.678;2024-03-08T15:43:14;5.18;;;4.18;;
49340;SDS011;35209;51.050;13.678;2024-03-08T15:48:17;4.80;;;4.30;;
49340;SDS011;35209;51.050;13.678;2024-03-08T15:53:19;6.00;;;4.60;;
49340;SDS011;35209;51.050;13.678;2024-03-08T15:58:21;6.20;;;5.35;;
49340;SDS011;35209;51.050;13.678;2024-03-08T16:03:23;7.35;;;5.57;;
49340;SDS011;35209;51.050;13.678;2024-03-08T16:08:24;5.63;;;4.90;;
49340;SDS011;35209;51.050;13.678;2024-03-08T16:13:27;5.90;;;5.30;;
49340;SDS011;35209;51.050;13.678;2024-03-08T16:18:29;7.28;;;6.57;;
49340;SDS011;35209;51.050;13.678;2024-03-08T16:23:32;8.30;;;7.15;;
49340;SDS011;35209;51.050;13.678;2024-03-08T16:28:34;7.70;;;6.97;;
49340;SDS011;35209;51.050;13.678;2024-03-08T16:33:43;7.63;;;6.60;;
49340;SDS011;35209;51.050;13.678;2024-03-08T16:38:46;7.68;;;6.88;;
49340;SDS011;35209;51.050;13.678;2024-03-08T16:43:50;7.60;;;6.72;;
49340;SDS011;35209;51.050;13.678;2024-03-08T16:48:51;7.82;;;7.03;;
49340;SDS011;35209;51.050;13.678;2024-03-08T16:53:53;8.75;;;7.47;;
49340;SDS011;35209;51.050;13.678;2024-03-08T16:58:56;8.80;;;7.90;;
49340;SDS011;35209;51.050;13.678;2024-03-08T17:03:57;8.95;;;8.00;;
49340;SDS011;35209;51.050;13.678;2024-03-08T17:09:02;8.73;;;7.50;;
49340;SDS011;35209;51.050;13.678;2024-03-08T17:14:04;9.02;;;8.13;;
49340;SDS011;35209;51.050;13.678;2024-03-08T17:19:06;9.40;;;8.18;;
49340;SDS011;35209;51.050;13.678;2024-03-08T17:24:09;16.45;;;12.45;;
49340;SDS011;35209;51.050;13.678;2024-03-08T17:29:13;10.80;;;9.70;;
49340;SDS011;35209;51.050;13.678;2024-03-08T17:34:15;10.13;;;8.57;;
49340;SDS011;35209;51.050;13.678;2024-03-08T17:39:20;8.18;;;7.28;;
49340;SDS011;35209;51.050;13.678;2024-03-08T17:44:28;7.80;;;7.07;;
49340;SDS011;35209;51.050;13.678;2024-03-08T17:49:33;8.15;;;7.25;;
49340;SDS011;35209;51.050;13.678;2024-03-08T17:54:36;9.13;;;6.63;;
49340;SDS011;35209;51.050;13.678;2024-03-08T17:59:38;6.97;;;6.28;;
49340;SDS011;35209;51.050;13.678;2024-03-08T18:04:40;6.85;;;6.15;;
49340;SDS011;35209;51.050;13.678;2024-03-08T18:09:42;6.82;;;4.90;;
49340;SDS011;35209;51.050;13.678;2024-03-08T18:14:45;5.60;;;5.07;;
49340;SDS011;35209;51.050;13.678;2024-03-08T18:19:46;6.40;;;5.35;;
49340;SDS011;35209;51.050;13.678;2024-03-08T18:24:51;6.40;;;5.18;;
49340;SDS011;35209;51.050;13.678;2024-03-08T18:29:53;5.45;;;4.85;;
49340;SDS011;35209;51.050;13.678;2024-03-08T18:34:55;8.85;;;5.95;;
49340;SDS011;35209;51.050;13.678;2024-03-08T18:39:57;19.10;;;15.82;;
49340;SDS011;35209;51.050;13.678;2024-03-08T18:45:00;21.75;;;18.60;;
49340;SDS011;35209;51.050;13.678;2024-03-08T18:50:11;35.92;;;20.38;;
49340;SDS011;35209;51.050;13.678;2024-03-08T18:55:15;30.23;;;21.42;;
49340;SDS011;35209;51.050;13.678;2024-03-08T19:00:23;34.60;;;21.98;;
49340;SDS011;35209;51.050;13.678;2024-03-08T19:05:31;38.50;;;22.40;;
49340;SDS011;35209;51.050;13.678;2024-03-08T19:10:36;39.72;;;22.13;;
49340;SDS011;35209;51.050;13.678;2024-03-08T19:15:40;34.83;;;22.38;;
49340;SDS011;35209;51.050;13.678;2024-03-08T19:20:42;42.85;;;23.13;;
49340;SDS011;35209;51.050;13.678;2024-03-08T19:25:44;44.75;;;25.30;;
49340;SDS011;35209;51.050;13.678;2024-03-08T19:30:46;49.95;;;23.83;;
49340;SDS011;35209;51.050;13.678;2024-03-08T19:35:49;43.17;;;23.50;;
49340;SDS011;35209;51.050;13.678;2024-03-08T19:40:51;26.27;;;19.65;;
49340;SDS011;35209;51.050;13.678;2024-03-08T19:45:55;29.27;;;16.20;;
49340;SDS011;35209;51.050;13.678;2024-03-08T19:50:57;17.33;;;12.02;;
49340;SDS011;35209;51.050;13.678;2024-03-08T19:56:06;12.20;;;10.88;;
49340;SDS011;35209;51.050;13.678;2024-03-08T20:01:08;11.05;;;8.18;;
49340;SDS011;35209;51.050;13.678;2024-03-08T20:06:11;9.88;;;8.88;;
49340;SDS011;35209;51.050;13.678;2024-03-08T20:11:12;8.02;;;6.97;;
49340;SDS011;35209;51.050;13.678;2024-03-08T20:16:16;8.18;;;6.65;;
49340;SDS011;35209;51.050;13.678;2024-03-08T20:21:19;9.57;;;6.75;;
49340;SDS011;35209;51.050;13.678;2024-03-08T20:26:21;8.88;;;7.13;;
49340;SDS011;35209;51.050;13.678;2024-03-08T20:31:24;6.78;;;5.85;;
49340;SDS011;35209;51.050;13.678;2024-03-08T20:36:26;7.00;;;5.80;;
49340;SDS011;35209;51.050;13.678;2024-03-08T20:41:27;7.75;;;6.72;;
49340;SDS011;35209;51.050;13.678;2024-03-08T20:46:29;10.30;;;6.68;;
49340;SDS011;35209;51.050;13.678;2024-03-08T20:51:31;8.63;;;6.78;;
49340;SDS011;35209;51.050;13.678;2024-03-08T20:56:33;7.65;;;6.82;;
49340;SDS011;35209;51.050;13.678;2024-03-08T21:01:36;7.15;;;6.47;;
49340;SDS011;35209;51.050;13.678;2024-03-08T21:06:38;10.45;;;7.10;;
49340;SDS011;35209;51.050;13.678;2024-03-08T21:11:45;9.43;;;7.20;;
49340;SDS011;35209;51.050;13.678;2024-03-08T21:16:46;8.35;;;7.45;;
49340;SDS011;35209;51.050;13.678;2024-03-08T21:21:49;11.95;;;8.20;;
49340;SDS011;35209;51.050;13.678;2024-03-08T21:26:50;13.13;;;8.13;;
49340;SDS011;35209;51.050;13.678;2024-03-08T21:31:56;8.88;;;7.43;;
49340;SDS011;35209;51.050;13.678;2024-03-08T21:36:58;11.65;;;7.80;;
49340;SDS011;35209;51.050;13.678;2024-03-08T21:42:02;9.35;;;7.85;;
49340;SDS011;35209;51.050;13.678;2024-03-08T21:47:04;9.63;;;7.65;;
49340;SDS011;35209;51.050;13.678;2024-03-08T21:52:07;10.10;;;8.27;;
49340;SDS011;35209;51.050;13.678;2024-03-08T21:57:08;9.05;;;8.15;;
49340;SDS011;35209;51.050;13.678;2024-03-08T22:02:11;10.57;;;8.40;;
49340;SDS011;35209;51.050;13.678;2024-03-08T22:07:13;11.30;;;8.40;;
49340;SDS011;35209;51.050;13.678;2024-03-08T22:12:15;12.43;;;7.38;;
49340;SDS011;35209;51.050;13.678;2024-03-08T22:17:17;12.18;;;9.02;;
49340;SDS011;35209;51.050;13.678;2024-03-08T22:22:24;10.25;;;7.95;;
49340;SDS011;35209;51.050;13.678;2024-03-08T22:27:26;10.93;;;9.13;;
49340;SDS011;35209;51.050;13.678;2024-03-08T22:32:28;10.80;;;8.25;;
49340;SDS011;35209;51.050;13.678;2024-03-08T22:37:29;16.67;;;10.55;;
49340;SDS011;35209;51.050;13.678;2024-03-08T22:42:31;8.43;;;7.13;;
49340;SDS011;35209;51.050;13.678;2024-03-08T22:47:33;12.63;;;8.30;;
49340;SDS011;35209;51.050;13.678;2024-03-08T22:52:35;11.65;;;8.88;;
49340;SDS011;35209;51.050;13.678;2024-03-08T22:57:38;11.10;;;8.15;;
49340;SDS011;35209;51.050;13.678;2024-03-08T23:02:41;11.70;;;8.90;;
49340;SDS011;35209;51.050;13.678;2024-03-08T23:07:44;10.23;;;8.98;;
49340;SDS011;35209;51.050;13.678;2024-03-08T23:12:46;9.32;;;8.32;;
49340;SDS011;35209;51.050;13.678;2024-03-08T23:17:48;9.55;;;8.23;;
49340;SDS011;35209;51.050;13.678;2024-03-08T23:22:53;10.52;;;8.77;;
49340;SDS011;35209;51.050;13.678;2024-03-08T23:27:58;9.63;;;8.05;;
49340;SDS011;35209;51.050;13.678;2024-03-08T23:33:06;10.27;;;7.85;;
49340;SDS011;35209;51.050;13.678;2024-03-08T23:38:10;10.30;;;8.57;;
49340;SDS011;35209;51.050;13.678;2024-03-08T23:43:12;13.57;;;7.78;;
49340;SDS011;35209;51.050;13.678;2024-03-08T23:48:14;11.38;;;9.02;;
49340;SDS011;35209;51.050;13.678;2024-03-08T23:53:16;12.57;;;7.85;;
49340;SDS011;35209;51.050;13.678;2024-03-08T23:58:19;11.13;;;8.00;;
